Time,TemperatureF,DewpointF,PressureIn,WindDirection,WindDirectionDegrees,WindSpeedMPH,WindSpeedGustMPH,Humidity,HourlyPrecipIn,Conditions,Clouds,dailyrainin,SoftwareType,DateUTC
2013-12-18 00:01:00,23.8,21.8,30.45,WSW,258,1.2,1.2,92,0.00,OVC,,0.00,WeatherDisplay:10.37,2013-12-18 05:01:00,
2013-12-18 00:02:00,23.8,21.8,30.45,WSW,258,1.2,1.2,92,0.00,-SN,,0.00,WeatherDisplay:10.37,2013-12-18 05:02:00,
2013-12-18 00:07:00,23.7,22.0,30.45,WSW,258,1.2,0.0,93,0.00,-SN,,0.00,WeatherDisplay:10.37,2013-12-18 05:07:00,
2013-12-18 00:12:00,23.7,22.0,30.45,WSW,258,1.2,1.2,93,0.00,-SN,,0.00,WeatherDisplay:10.37,2013-12-18 05:12:00,
2013-12-18 00:17:00,23.7,22.0,30.45,WSW,258,1.2,1.2,93,0.00,-SN,,0.00,WeatherDisplay:10.37,2013-12-18 05:17:00,
2013-12-18 00:22:00,23.6,21.9,30.44,WSW,258,1.2,1.2,93,0.00,-SN,,0.00,WeatherDisplay:10.37,2013-12-18 05:22:00,
2013-12-18 00:27:00,23.7,22.0,30.44,WSW,257,1.2,1.2,93,0.00,-SN,,0.00,WeatherDisplay:10.37,2013-12-18 05:27:00,
2013-12-18 00:32:00,23.8,22.1,30.44,WSW,257,1.2,1.2,93,0.00,-SN,,0.00,WeatherDisplay:10.37,2013-12-18 05:32:00,
2013-12-18 00:37:00,23.8,22.3,30.44,WSW,244,3.5,3.5,94,0.00,-SN,,0.00,WeatherDisplay:10.37,2013-12-18 05:37:00,
2013-12-18 00:42:00,23.8,22.3,30.44,WSW,238,1.2,1.2,94,0.00,-SN,,0.00,WeatherDisplay:10.37,2013-12-18 05:42:00,
2013-12-18 00:47:00,23.9,22.2,30.43,WSW,243,1.2,1.2,93,0.00,-SN,,0.00,WeatherDisplay:10.37,2013-12-18 05:47:00,
2013-12-18 00:52:00,23.9,22.2,30.43,West,260,2.3,2.3,93,0.00,-SN,,0.00,WeatherDisplay:10.37,2013-12-18 05:52:00,
2013-12-18 00:57:00,23.9,22.2,30.43,West,272,1.2,1.2,93,0.00,-SN,,0.00,WeatherDisplay:10.37,2013-12-18 05:57:00,
2013-12-18 01:02:00,24.0,22.3,30.43,WSW,251,1.2,1.2,93,0.00,-SN,,0.00,WeatherDisplay:10.37,2013-12-18 06:02:00,
2013-12-18 01:07:00,24.0,22.3,30.43,WSW,245,2.3,2.3,93,0.00,-SN,,0.00,WeatherDisplay:10.37,2013-12-18 06:07:00,
2013-12-18 01:12:00,24.1,22.4,30.43,West,262,2.3,2.3,93,0.00,-SN,,0.00,WeatherDisplay:10.37,2013-12-18 06:12:00,
2013-12-18 01:17:00,24.1,22.4,30.43,WSW,253,2.3,2.3,93,0.00,-SN,,0.00,WeatherDisplay:10.37,2013-12-18 06:17:00,
2013-12-18 01:22:00,24.1,22.4,30.43,WSW,257,2.3,2.3,93,0.00,-SN,,0.00,WeatherDisplay:10.37,2013-12-18 06:22:00,
2013-12-18 01:27:00,24.0,22.3,30.43,WSW,247,2.0,2.0,93,0.00,-SN,,0.00,WeatherDisplay:10.37,2013-12-18 06:27:00,
2013-12-18 01:32:00,24.0,22.3,30.43,WSW,248,2.3,2.3,93,0.00,-SN,,0.00,WeatherDisplay:10.37,2013-12-18 06:32:00,
2013-12-18 01:37:00,24.0,22.0,30.43,WSW,245,3.5,3.5,92,0.00,-SN,,0.00,WeatherDisplay:10.37,2013-12-18 06:37:00,
2013-12-18 01:42:00,24.0,22.0,30.43,WSW,254,2.3,2.3,92,0.00,-SN,,0.00,WeatherDisplay:10.37,2013-12-18 06:42:00,
2013-12-18 01:47:00,24.0,22.0,30.43,WSW,238,3.5,3.5,92,0.00,-SN,,0.00,WeatherDisplay:10.37,2013-12-18 06:47:00,
2013-12-18 01:52:00,24.0,22.0,30.43,SW,231,2.3,2.3,92,0.00,-SN,,0.00,WeatherDisplay:10.37,2013-12-18 06:52:00,
2013-12-18 01:57:00,24.0,22.0,30.43,WSW,244,2.3,2.3,92,0.00,-SN,,0.00,WeatherDisplay:10.37,2013-12-18 06:57:00,
2013-12-18 02:02:00,24.1,22.4,30.44,WSW,241,2.3,2.3,93,0.00,OVC,,0.00,WeatherDisplay:10.37,2013-12-18 07:02:00,
2013-12-18 02:07:00,24.0,22.3,30.44,WSW,242,0.0,0.0,93,0.00,OVC,,0.00,WeatherDisplay:10.37,2013-12-18 07:07:00,
2013-12-18 02:12:00,24.0,22.3,30.44,WSW,252,2.3,2.3,93,0.00,OVC,,0.00,WeatherDisplay:10.37,2013-12-18 07:12:00,
2013-12-18 02:18:00,24.0,22.3,30.44,SW,234,1.2,1.2,93,0.00,OVC,,0.00,WeatherDisplay:10.37,2013-12-18 07:18:00,
2013-12-18 02:23:00,24.0,22.3,30.44,WSW,248,3.5,3.5,93,0.00,OVC,,0.00,WeatherDisplay:10.37,2013-12-18 07:23:00,
2013-12-18 02:28:00,24.1,22.4,30.45,West,262,3.5,3.5,93,0.00,OVC,,0.00,WeatherDisplay:10.37,2013-12-18 07:28:00,
2013-12-18 02:33:00,24.3,22.3,30.45,WSW,252,2.3,2.6,92,0.00,OVC,,0.00,WeatherDisplay:10.37,2013-12-18 07:33:00,
2013-12-18 02:38:00,24.5,22.5,30.45,WSW,257,4.6,4.6,92,0.00,OVC,,0.00,WeatherDisplay:10.37,2013-12-18 07:38:00,
2013-12-18 02:43:00,24.7,22.4,30.44,WSW,245,3.5,3.5,91,0.00,OVC,,0.00,WeatherDisplay:10.37,2013-12-18 07:43:00,
2013-12-18 02:48:00,24.9,22.4,30.45,WSW,245,4.6,4.6,90,0.00,OVC,,0.00,WeatherDisplay:10.37,2013-12-18 07:48:00,
2013-12-18 02:53:00,25.1,22.3,30.45,WSW,252,5.0,5.0,89,0.00,OVC,,0.00,WeatherDisplay:10.37,2013-12-18 07:53:00,
2013-12-18 02:58:00,25.3,22.5,30.45,WSW,254,5.8,5.8,89,0.00,OVC,,0.00,WeatherDisplay:10.37,2013-12-18 07:58:00,
2013-12-18 03:03:00,25.4,22.3,30.45,West,274,8.1,8.1,88,0.00,-SN,,0.00,WeatherDisplay:10.37,2013-12-18 08:03:00,
2013-12-18 03:08:00,25.6,22.5,30.45,West,263,5.8,5.8,88,0.00,-SN,,0.00,WeatherDisplay:10.37,2013-12-18 08:08:00,
2013-12-18 03:13:00,25.7,22.4,30.45,WSW,251,5.8,5.8,87,0.00,-SN,,0.00,WeatherDisplay:10.37,2013-12-18 08:13:00,
2013-12-18 03:18:00,25.8,22.5,30.45,WSW,258,8.1,8.1,87,0.00,-SN,,0.00,WeatherDisplay:10.37,2013-12-18 08:18:00,
2013-12-18 03:23:00,25.7,22.4,30.45,WSW,240,5.8,5.8,87,0.00,-SN,,0.00,WeatherDisplay:10.37,2013-12-18 08:23:00,
2013-12-18 03:28:00,25.7,22.4,30.45,WSW,257,5.8,5.8,87,0.00,-SN,,0.00,WeatherDisplay:10.37,2013-12-18 08:28:00,
2013-12-18 03:33:00,25.7,22.4,30.45,WSW,256,5.8,5.8,87,0.00,-SN,,0.00,WeatherDisplay:10.37,2013-12-18 08:33:00,
2013-12-18 03:38:00,25.6,22.3,30.45,WSW,250,4.0,4.0,87,0.00,-SN,,0.00,WeatherDisplay:10.37,2013-12-18 08:38:00,
2013-12-18 03:43:00,25.5,22.2,30.45,West,264,4.6,4.6,87,0.00,-SN,,0.00,WeatherDisplay:10.37,2013-12-18 08:43:00,
2013-12-18 03:48:00,25.5,22.2,30.45,West,264,3.5,3.5,87,0.00,-SN,,0.00,WeatherDisplay:10.37,2013-12-18 08:48:00,
2013-12-18 03:53:00,25.6,22.3,30.45,WSW,255,3.5,3.5,87,0.00,-SN,,0.00,WeatherDisplay:10.37,2013-12-18 08:53:00,
2013-12-18 03:58:00,25.5,22.2,30.45,West,271,3.5,3.5,87,0.00,-SN,,0.00,WeatherDisplay:10.37,2013-12-18 08:58:00,
2013-12-18 04:03:00,25.5,22.2,30.45,WSW,240,3.5,3.5,87,0.00,-SN,,0.00,WeatherDisplay:10.37,2013-12-18 09:03:00,
2013-12-18 04:08:00,25.6,22.3,30.45,WSW,256,4.6,4.6,87,0.00,-SN,,0.00,WeatherDisplay:10.37,2013-12-18 09:08:00,
2013-12-18 04:13:00,25.7,22.4,30.45,WSW,238,4.0,4.0,87,0.00,-SN,,0.00,WeatherDisplay:10.37,2013-12-18 09:13:00,
2013-12-18 04:18:00,25.7,22.4,30.45,WSW,253,5.8,5.8,87,0.00,-SN,,0.00,WeatherDisplay:10.37,2013-12-18 09:18:00,
2013-12-18 04:23:00,25.8,22.5,30.45,West,268,8.1,8.1,87,0.00,-SN,,0.00,WeatherDisplay:10.37,2013-12-18 09:23:00,
2013-12-18 04:28:00,25.9,22.6,30.45,WSW,253,5.8,5.8,87,0.00,-SN,,0.00,WeatherDisplay:10.37,2013-12-18 09:28:00,
2013-12-18 04:33:00,25.9,22.6,30.45,West,260,4.6,4.6,87,0.00,-SN,,0.00,WeatherDisplay:10.37,2013-12-18 09:33:00,
2013-12-18 04:38:00,25.9,22.6,30.45,West,279,8.0,8.0,87,0.00,-SN,,0.00,WeatherDisplay:10.37,2013-12-18 09:38:00,
2013-12-18 04:43:00,26.0,22.7,30.46,West,281,5.0,5.0,87,0.00,-SN,,0.00,WeatherDisplay:10.37,2013-12-18 09:43:00,
2013-12-18 04:48:00,26.0,22.7,30.46,WNW,283,4.6,4.6,87,0.00,-SN,,0.00,WeatherDisplay:10.37,2013-12-18 09:48:00,
2013-12-18 04:53:00,26.0,22.7,30.46,WNW,290,10.4,10.4,87,0.00,-SN,,0.00,WeatherDisplay:10.37,2013-12-18 09:53:00,
2013-12-18 04:58:00,25.9,22.8,30.46,West,273,8.1,8.1,88,0.00,-SN,,0.00,WeatherDisplay:10.37,2013-12-18 09:58:00,
2013-12-18 05:03:00,25.9,22.8,30.46,West,277,5.8,5.8,88,0.00,OVC,,0.00,WeatherDisplay:10.37,2013-12-18 10:03:00,
2013-12-18 05:08:00,25.8,22.7,30.46,WSW,258,8.1,8.1,88,0.00,OVC,,0.00,WeatherDisplay:10.37,2013-12-18 10:08:00,
2013-12-18 05:13:00,25.7,22.6,30.46,West,260,9.2,9.2,88,0.00,OVC,,0.00,WeatherDisplay:10.37,2013-12-18 10:13:00,
2013-12-18 05:18:00,25.7,22.6,30.46,West,268,8.1,8.1,88,0.00,OVC,,0.00,WeatherDisplay:10.37,2013-12-18 10:18:00,
2013-12-18 05:23:00,25.6,22.5,30.46,West,266,7.0,7.0,88,0.00,OVC,,0.00,WeatherDisplay:10.37,2013-12-18 10:23:00,
2013-12-18 05:28:00,25.6,22.5,30.46,West,270,8.0,8.0,88,0.00,OVC,,0.00,WeatherDisplay:10.37,2013-12-18 10:28:00,
2013-12-18 05:33:00,25.7,22.6,30.47,West,268,9.2,9.2,88,0.00,OVC,,0.00,WeatherDisplay:10.37,2013-12-18 10:33:00,
2013-12-18 05:38:00,25.8,22.7,30.47,West,280,11.5,11.5,88,0.00,OVC,,0.00,WeatherDisplay:10.37,2013-12-18 10:38:00,
2013-12-18 05:43:00,25.8,22.5,30.47,WNW,299,10.4,10.4,87,0.00,OVC,,0.00,WeatherDisplay:10.37,2013-12-18 10:43:00,
2013-12-18 05:48:00,25.8,22.7,30.47,West,265,10.4,10.4,88,0.00,OVC,,0.00,WeatherDisplay:10.37,2013-12-18 10:48:00,
2013-12-18 05:53:00,25.9,22.8,30.47,West,270,9.2,9.2,88,0.00,OVC,,0.00,WeatherDisplay:10.37,2013-12-18 10:53:00,
2013-12-18 05:58:00,25.8,22.7,30.47,West,270,10.4,10.4,88,0.00,OVC,,0.00,WeatherDisplay:10.37,2013-12-18 10:58:00,
2013-12-18 06:03:00,25.8,22.7,30.47,West,272,9.2,9.2,88,0.00,-SN,,0.00,WeatherDisplay:10.37,2013-12-18 11:03:00,
2013-12-18 06:08:00,25.7,22.9,30.47,West,265,8.1,8.1,89,0.00,-SN,,0.00,WeatherDisplay:10.37,2013-12-18 11:08:00,
2013-12-18 06:13:00,25.6,22.8,30.47,West,260,5.0,5.1,89,0.00,-SN,,0.00,WeatherDisplay:10.37,2013-12-18 11:13:00,
2013-12-18 06:14:00,25.6,22.8,30.47,WNW,295,9.2,9.2,89,0.00,-SN,,0.00,WeatherDisplay:10.37,2013-12-18 11:14:00,
2013-12-18 06:19:00,25.5,22.7,30.47,West,262,6.9,6.9,89,0.00,-SN,,0.00,WeatherDisplay:10.37,2013-12-18 11:19:00,
2013-12-18 06:24:00,25.5,22.7,30.48,WNW,290,7.0,7.0,89,0.00,-SN,,0.00,WeatherDisplay:10.37,2013-12-18 11:24:00,
2013-12-18 06:29:00,25.5,22.7,30.48,West,277,6.9,6.9,89,0.00,-SN,,0.00,WeatherDisplay:10.37,2013-12-18 11:29:00,
2013-12-18 06:34:00,25.4,22.6,30.48,West,279,4.6,4.6,89,0.00,-SN,,0.00,WeatherDisplay:10.37,2013-12-18 11:34:00,
2013-12-18 06:39:00,25.4,22.6,30.48,West,277,5.0,5.0,89,0.00,-SN,,0.00,WeatherDisplay:10.37,2013-12-18 11:39:00,
2013-12-18 06:44:00,25.3,22.5,30.48,West,279,4.0,4.0,89,0.00,-SN,,0.00,WeatherDisplay:10.37,2013-12-18 11:44:00,
2013-12-18 06:49:00,25.3,22.5,30.48,West,263,6.9,6.9,89,0.00,-SN,,0.00,WeatherDisplay:10.37,2013-12-18 11:49:00,
2013-12-18 06:54:00,25.3,22.5,30.48,West,274,8.1,8.1,89,0.00,-SN,,0.00,WeatherDisplay:10.37,2013-12-18 11:54:00,
2013-12-18 06:59:00,25.3,22.2,30.48,West,279,6.0,6.0,88,0.00,-SN,,0.00,WeatherDisplay:10.37,2013-12-18 11:59:00,
2013-12-18 07:04:00,25.3,22.2,30.49,West,273,8.1,8.1,88,0.00,-SN,,0.00,WeatherDisplay:10.37,2013-12-18 12:04:00,
2013-12-18 07:09:00,25.4,22.3,30.49,WSW,243,6.0,6.0,88,0.00,-SN,,0.00,WeatherDisplay:10.37,2013-12-18 12:09:00,
2013-12-18 07:14:00,25.4,22.6,30.49,WNW,282,7.0,7.0,89,0.00,-SN,,0.00,WeatherDisplay:10.37,2013-12-18 12:14:00,
2013-12-18 07:19:00,25.5,22.7,30.49,West,260,9.2,9.2,89,0.00,-SN,,0.00,WeatherDisplay:10.37,2013-12-18 12:19:00,
2013-12-18 07:24:00,25.4,22.6,30.49,West,268,6.9,6.9,89,0.00,-SN,,0.00,WeatherDisplay:10.37,2013-12-18 12:24:00,
2013-12-18 07:29:00,25.4,22.6,30.49,West,272,8.1,8.1,89,0.00,-SN,,0.00,WeatherDisplay:10.37,2013-12-18 12:29:00,
2013-12-18 07:34:00,25.4,22.6,30.49,West,279,8.1,8.1,89,0.00,-SN,,0.00,WeatherDisplay:10.37,2013-12-18 12:34:00,
2013-12-18 07:39:00,25.6,22.8,30.49,WNW,286,10.4,10.4,89,0.00,-SN,,0.00,WeatherDisplay:10.37,2013-12-18 12:39:00,
2013-12-18 07:44:00,25.6,22.8,30.50,West,277,10.4,10.4,89,0.00,-SN,,0.00,WeatherDisplay:10.37,2013-12-18 12:44:00,
2013-12-18 07:49:00,25.7,22.6,30.50,West,281,11.5,11.5,88,0.00,-SN,,0.00,WeatherDisplay:10.37,2013-12-18 12:49:00,
2013-12-18 07:54:00,25.8,22.7,30.50,West,259,9.2,9.2,88,0.00,-SN,,0.00,WeatherDisplay:10.37,2013-12-18 12:54:00,
2013-12-18 07:59:00,25.7,22.4,30.50,WNW,289,13.0,13.0,87,0.00,-SN,,0.00,WeatherDisplay:10.37,2013-12-18 12:59:00,
2013-12-18 08:04:00,25.8,22.2,30.50,WNW,283,18.4,18.4,86,0.00,BKN,,0.00,WeatherDisplay:10.37,2013-12-18 13:04:00,
2013-12-18 08:09:00,25.8,22.2,30.50,WNW,283,10.4,10.4,86,0.00,BKN,,0.00,WeatherDisplay:10.37,2013-12-18 13:09:00,
2013-12-18 08:14:00,25.7,21.8,30.50,WNW,296,13.8,13.8,85,0.00,BKN,,0.00,WeatherDisplay:10.37,2013-12-18 13:14:00,
2013-12-18 08:19:00,25.7,21.8,30.50,West,278,11.5,11.5,85,0.00,BKN,,0.00,WeatherDisplay:10.37,2013-12-18 13:19:00,
2013-12-18 08:24:00,25.8,21.6,30.50,West,274,8.1,8.1,84,0.00,BKN,,0.00,WeatherDisplay:10.37,2013-12-18 13:24:00,
2013-12-18 08:29:00,25.8,21.6,30.50,West,276,13.8,13.8,84,0.00,BKN,,0.00,WeatherDisplay:10.37,2013-12-18 13:29:00,
2013-12-18 08:34:00,25.9,21.4,30.50,WNW,300,12.7,12.7,83,0.00,BKN,,0.00,WeatherDisplay:10.37,2013-12-18 13:34:00,
2013-12-18 08:39:00,25.9,21.2,30.50,WNW,282,8.1,8.1,82,0.00,BKN,,0.00,WeatherDisplay:10.37,2013-12-18 13:39:00,
2013-12-18 08:45:00,25.9,20.9,30.50,NW,310,10.0,10.0,81,0.00,BKN,,0.00,WeatherDisplay:10.37,2013-12-18 13:45:00,
2013-12-18 08:50:00,26.2,21.2,30.50,NW,307,11.5,11.5,81,0.00,BKN,,0.00,WeatherDisplay:10.37,2013-12-18 13:50:00,
2013-12-18 08:55:00,26.3,21.0,30.50,WNW,295,8.0,8.0,80,0.00,BKN,,0.00,WeatherDisplay:10.37,2013-12-18 13:55:00,
2013-12-18 09:00:00,26.5,20.9,30.50,WNW,293,9.2,9.2,79,0.00,BKN,,0.00,WeatherDisplay:10.37,2013-12-18 14:00:00,
2013-12-18 09:05:00,26.5,20.9,30.50,West,271,4.6,4.6,79,0.00,SCT,,0.00,WeatherDisplay:10.37,2013-12-18 14:05:00,
2013-12-18 09:10:00,26.6,20.7,30.50,West,271,5.8,5.8,78,0.00,SCT,,0.00,WeatherDisplay:10.37,2013-12-18 14:10:00,
2013-12-18 09:15:00,26.8,20.9,30.50,West,263,5.0,5.0,78,0.00,SCT,,0.00,WeatherDisplay:10.37,2013-12-18 14:15:00,
2013-12-18 09:20:00,26.8,20.9,30.50,WNW,296,4.6,4.6,78,0.00,SCT,,0.00,WeatherDisplay:10.37,2013-12-18 14:20:00,
2013-12-18 09:25:00,26.9,20.7,30.50,West,279,7.0,9.2,77,0.00,SCT,,0.00,WeatherDisplay:10.37,2013-12-18 14:25:00,
2013-12-18 09:30:00,27.1,20.2,30.50,WNW,288,11.5,11.5,75,0.00,SCT,,0.00,WeatherDisplay:10.37,2013-12-18 14:30:00,
2013-12-18 09:35:00,27.3,20.1,30.50,WNW,283,8.1,8.1,74,0.00,SCT,,0.00,WeatherDisplay:10.37,2013-12-18 14:35:00,
2013-12-18 09:40:00,27.4,19.9,30.50,WNW,287,11.5,11.5,73,0.00,SCT,,0.00,WeatherDisplay:10.37,2013-12-18 14:40:00,
2013-12-18 09:45:00,27.6,19.8,30.50,NW,305,10.4,10.4,72,0.00,SCT,,0.00,WeatherDisplay:10.37,2013-12-18 14:45:00,
2013-12-18 09:50:00,27.7,19.5,30.50,West,270,12.7,12.7,71,0.00,SCT,,0.00,WeatherDisplay:10.37,2013-12-18 14:50:00,
2013-12-18 09:55:00,27.8,19.6,30.50,West,272,11.5,11.5,71,0.00,SCT,,0.00,WeatherDisplay:10.37,2013-12-18 14:55:00,
2013-12-18 10:00:00,28.1,19.9,30.50,WNW,283,15.0,15.0,71,0.00,SCT,,0.00,WeatherDisplay:10.37,2013-12-18 15:00:00,
2013-12-18 10:05:00,28.1,19.6,30.50,West,267,11.5,11.5,70,0.00,OVC,,0.00,WeatherDisplay:10.37,2013-12-18 15:05:00,
2013-12-18 10:10:00,28.1,19.6,30.51,WNW,295,11.5,11.5,70,0.00,OVC,,0.00,WeatherDisplay:10.37,2013-12-18 15:10:00,
2013-12-18 10:15:00,28.4,19.9,30.51,WNW,286,10.4,10.4,70,0.00,OVC,,0.00,WeatherDisplay:10.37,2013-12-18 15:15:00,
2013-12-18 10:20:00,28.7,20.1,30.51,WSW,258,12.7,12.7,70,0.00,OVC,,0.00,WeatherDisplay:10.37,2013-12-18 15:20:00,
2013-12-18 10:25:00,29.0,20.1,30.51,NW,309,11.5,11.5,69,0.00,OVC,,0.00,WeatherDisplay:10.37,2013-12-18 15:25:00,
2013-12-18 10:30:00,29.1,20.2,30.51,NW,305,11.5,11.5,69,0.00,OVC,,0.00,WeatherDisplay:10.37,2013-12-18 15:30:00,
2013-12-18 10:35:00,29.3,20.4,30.51,West,277,12.7,12.7,69,0.00,OVC,,0.00,WeatherDisplay:10.37,2013-12-18 15:35:00,
2013-12-18 10:40:00,29.4,20.5,30.51,WNW,291,9.2,9.2,69,0.00,OVC,,0.00,WeatherDisplay:10.37,2013-12-18 15:40:00,
2013-12-18 10:45:00,29.5,20.6,30.51,WNW,287,8.1,8.1,69,0.00,OVC,,0.00,WeatherDisplay:10.37,2013-12-18 15:45:00,
2013-12-18 10:50:00,29.6,20.3,30.51,WNW,294,12.7,12.7,68,0.00,OVC,,0.00,WeatherDisplay:10.37,2013-12-18 15:50:00,
2013-12-18 10:55:00,29.6,20.0,30.51,WNW,302,12.7,12.7,67,0.00,OVC,,0.00,WeatherDisplay:10.37,2013-12-18 15:55:00,
2013-12-18 11:00:00,29.6,20.0,30.51,WNW,287,15.0,15.0,67,0.00,OVC,,0.00,WeatherDisplay:10.37,2013-12-18 16:00:00,
2013-12-18 11:05:00,29.7,20.1,30.51,WNW,290,8.1,8.1,67,0.00,-SN,,0.00,WeatherDisplay:10.37,2013-12-18 16:05:00,
2013-12-18 11:10:00,29.7,20.4,30.51,WNW,283,6.9,6.9,68,0.00,-SN,,0.00,WeatherDisplay:10.37,2013-12-18 16:10:00,
2013-12-18 11:15:00,30.0,20.0,30.50,West,277,11.5,11.5,66,0.00,-SN,,0.00,WeatherDisplay:10.37,2013-12-18 16:15:00,
2013-12-18 11:20:00,30.4,20.7,30.50,WSW,255,16.1,16.1,67,0.00,-SN,,0.00,WeatherDisplay:10.37,2013-12-18 16:20:00,
2013-12-18 11:25:00,30.5,20.5,30.50,West,267,16.1,16.1,66,0.00,-SN,,0.00,WeatherDisplay:10.37,2013-12-18 16:25:00,
2013-12-18 11:30:00,30.6,20.2,30.50,WNW,289,16.0,16.0,65,0.00,-SN,,0.00,WeatherDisplay:10.37,2013-12-18 16:30:00,
2013-12-18 11:35:00,30.8,20.8,30.50,WNW,303,10.0,10.0,66,0.00,-SN,,0.00,WeatherDisplay:10.37,2013-12-18 16:35:00,
2013-12-18 11:40:00,30.9,19.8,30.50,NW,316,17.3,17.3,63,0.00,-SN,,0.00,WeatherDisplay:10.37,2013-12-18 16:40:00,
2013-12-18 11:45:00,30.8,20.4,30.51,WSW,256,11.5,11.5,65,0.00,-SN,,0.00,WeatherDisplay:10.37,2013-12-18 16:45:00,
2013-12-18 11:50:00,30.6,19.5,30.50,West,260,18.4,18.4,63,0.00,-SN,,0.00,WeatherDisplay:10.37,2013-12-18 16:50:00,
2013-12-18 11:55:00,30.5,19.8,30.51,West,280,11.5,11.5,64,0.00,-SN,,0.00,WeatherDisplay:10.37,2013-12-18 16:55:00,
2013-12-18 12:00:00,30.5,20.1,30.50,West,269,12.7,12.7,65,0.00,-SN,,0.00,WeatherDisplay:10.37,2013-12-18 17:00:00,
2013-12-18 12:05:00,30.5,19.8,30.50,West,266,12.7,12.7,64,0.00,-SN,,0.00,WeatherDisplay:10.37,2013-12-18 17:05:00,
2013-12-18 12:10:00,30.6,19.9,30.50,WNW,286,10.4,10.4,64,0.00,-SN,,0.00,WeatherDisplay:10.37,2013-12-18 17:10:00,
2013-12-18 12:15:00,30.6,19.9,30.50,WNW,292,15.0,15.0,64,0.00,-SN,,0.00,WeatherDisplay:10.37,2013-12-18 17:15:00,
2013-12-18 12:20:00,30.6,20.2,30.50,WNW,283,11.5,11.5,65,0.00,-SN,,0.00,WeatherDisplay:10.37,2013-12-18 17:20:00,
2013-12-18 12:25:00,30.7,20.3,30.50,West,263,10.4,10.4,65,0.00,-SN,,0.00,WeatherDisplay:10.37,2013-12-18 17:25:00,
2013-12-18 12:30:00,30.8,20.4,30.50,WNW,293,12.7,12.7,65,0.00,-SN,,0.00,WeatherDisplay:10.37,2013-12-18 17:30:00,
2013-12-18 12:35:00,30.6,20.2,30.50,WNW,295,16.1,16.1,65,0.00,-SN,,0.00,WeatherDisplay:10.37,2013-12-18 17:35:00,
2013-12-18 12:40:00,30.6,20.6,30.50,WNW,288,16.1,16.1,66,0.00,-SN,,0.00,WeatherDisplay:10.37,2013-12-18 17:40:00,
2013-12-18 12:45:00,30.6,20.9,30.50,West,267,10.4,10.4,67,0.00,-SN,,0.00,WeatherDisplay:10.37,2013-12-18 17:45:00,
2013-12-18 12:50:00,30.8,20.8,30.50,WNW,293,11.5,11.5,66,0.00,-SN,,0.00,WeatherDisplay:10.37,2013-12-18 17:50:00,
2013-12-18 12:55:00,30.7,20.7,30.50,WNW,284,14.0,14.0,66,0.00,-SN,,0.00,WeatherDisplay:10.37,2013-12-18 17:55:00,
2013-12-18 13:00:00,30.7,20.7,30.49,NW,306,13.8,13.8,66,0.00,-SN,,0.00,WeatherDisplay:10.37,2013-12-18 18:00:00,
2013-12-18 13:05:00,30.6,20.6,30.49,WNW,302,17.3,17.3,66,0.00,OVC,,0.00,WeatherDisplay:10.37,2013-12-18 18:05:00,
2013-12-18 13:10:00,30.6,20.6,30.49,WNW,288,15.0,15.0,66,0.00,OVC,,0.00,WeatherDisplay:10.37,2013-12-18 18:10:00,
2013-12-18 13:15:00,30.6,20.6,30.49,WNW,292,20.7,20.7,66,0.00,OVC,,0.00,WeatherDisplay:10.37,2013-12-18 18:15:00,
2013-12-18 13:20:00,30.6,20.6,30.49,WNW,297,16.1,16.1,66,0.00,OVC,,0.00,WeatherDisplay:10.37,2013-12-18 18:20:00,
2013-12-18 13:25:00,30.7,20.7,30.49,WNW,283,12.0,12.0,66,0.00,OVC,,0.00,WeatherDisplay:10.37,2013-12-18 18:25:00,
2013-12-18 13:30:00,30.7,20.7,30.49,West,272,12.7,12.7,66,0.00,OVC,,0.00,WeatherDisplay:10.37,2013-12-18 18:30:00,
2013-12-18 13:35:00,30.7,20.7,30.49,NW,304,11.5,11.5,66,0.00,OVC,,0.00,WeatherDisplay:10.37,2013-12-18 18:35:00,
2013-12-18 13:40:00,30.7,21.0,30.48,WNW,300,15.0,15.0,67,0.00,OVC,,0.00,WeatherDisplay:10.37,2013-12-18 18:40:00,
2013-12-18 13:45:00,30.7,21.0,30.49,West,268,11.5,11.5,67,0.00,OVC,,0.00,WeatherDisplay:10.37,2013-12-18 18:45:00,
2013-12-18 13:50:00,30.8,21.5,30.49,NW,310,6.0,6.0,68,0.00,OVC,,0.00,WeatherDisplay:10.37,2013-12-18 18:50:00,
2013-12-18 13:55:00,30.7,21.0,30.49,WNW,292,17.3,17.3,67,0.00,OVC,,0.00,WeatherDisplay:10.37,2013-12-18 18:55:00,
2013-12-18 14:00:00,30.8,21.8,30.49,WNW,290,9.2,9.2,69,0.00,OVC,,0.00,WeatherDisplay:10.37,2013-12-18 19:00:00,
2013-12-18 14:05:00,30.8,21.5,30.49,WNW,302,11.5,11.5,68,0.00,OVC,,0.00,WeatherDisplay:10.37,2013-12-18 19:05:00,
2013-12-18 14:10:00,30.8,21.8,30.49,WNW,295,8.1,8.1,69,0.00,OVC,,0.00,WeatherDisplay:10.37,2013-12-18 19:10:00,
2013-12-18 14:15:00,30.9,21.9,30.49,WNW,282,8.1,8.1,69,0.00,OVC,,0.00,WeatherDisplay:10.37,2013-12-18 19:15:00,
2013-12-18 14:20:00,30.9,21.9,30.49,WSW,255,10.0,10.0,69,0.00,OVC,,0.00,WeatherDisplay:10.37,2013-12-18 19:20:00,
2013-12-18 14:25:00,31.0,21.7,30.49,WNW,284,11.5,11.5,68,0.00,OVC,,0.00,WeatherDisplay:10.37,2013-12-18 19:25:00,
2013-12-18 14:30:00,31.0,22.0,30.49,West,278,11.5,11.5,69,0.00,OVC,,0.00,WeatherDisplay:10.37,2013-12-18 19:30:00,
2013-12-18 14:35:00,31.0,22.0,30.49,WNW,290,11.5,11.5,69,0.00,OVC,,0.00,WeatherDisplay:10.37,2013-12-18 19:35:00,
2013-12-18 14:40:00,31.0,21.7,30.49,West,267,11.5,11.5,68,0.00,OVC,,0.00,WeatherDisplay:10.37,2013-12-18 19:40:00,
2013-12-18 14:45:00,31.0,21.7,30.49,WNW,286,9.2,9.2,68,0.00,OVC,,0.00,WeatherDisplay:10.37,2013-12-18 19:45:00,
2013-12-18 14:50:00,31.0,21.7,30.50,WNW,302,11.5,11.5,68,0.00,OVC,,0.00,WeatherDisplay:10.37,2013-12-18 19:50:00,
2013-12-18 14:55:00,31.1,21.8,30.50,WNW,288,10.4,10.4,68,0.00,OVC,,0.00,WeatherDisplay:10.37,2013-12-18 19:55:00,
2013-12-18 15:00:00,31.1,21.4,30.50,WSW,258,9.2,9.2,67,0.00,OVC,,0.00,WeatherDisplay:10.37,2013-12-18 20:00:00,
2013-12-18 15:05:00,31.2,21.9,30.50,West,279,7.0,7.0,68,0.00,OVC,,0.00,WeatherDisplay:10.37,2013-12-18 20:05:00,
2013-12-18 15:11:00,31.1,21.8,30.50,West,281,9.0,9.0,68,0.00,OVC,,0.00,WeatherDisplay:10.37,2013-12-18 20:11:00,
2013-12-18 15:16:00,31.0,22.0,30.50,WNW,299,5.8,5.8,69,0.00,OVC,,0.00,WeatherDisplay:10.37,2013-12-18 20:16:00,
2013-12-18 15:21:00,31.0,22.0,30.51,West,267,10.4,10.4,69,0.00,OVC,,0.00,WeatherDisplay:10.37,2013-12-18 20:21:00,
2013-12-18 15:26:00,31.0,21.7,30.51,West,277,6.9,6.9,68,0.00,OVC,,0.00,WeatherDisplay:10.37,2013-12-18 20:26:00,
2013-12-18 15:31:00,31.0,21.7,30.51,NW,324,11.5,11.5,68,0.00,OVC,,0.00,WeatherDisplay:10.37,2013-12-18 20:31:00,
2013-12-18 15:36:00,31.1,21.8,30.51,WNW,295,9.0,9.0,68,0.00,OVC,,0.00,WeatherDisplay:10.37,2013-12-18 20:36:00,
2013-12-18 15:41:00,31.1,21.8,30.51,NW,307,11.5,11.5,68,0.00,OVC,,0.00,WeatherDisplay:10.37,2013-12-18 20:41:00,
2013-12-18 15:46:00,31.1,21.4,30.51,West,277,13.8,13.8,67,0.00,OVC,,0.00,WeatherDisplay:10.37,2013-12-18 20:46:00,
2013-12-18 15:51:00,31.1,21.4,30.51,NW,307,19.6,19.6,67,0.00,OVC,,0.00,WeatherDisplay:10.37,2013-12-18 20:51:00,
2013-12-18 15:56:00,31.0,21.0,30.51,NW,309,13.0,13.0,66,0.00,OVC,,0.00,WeatherDisplay:10.37,2013-12-18 20:56:00,
2013-12-18 16:01:00,31.0,21.0,30.51,WNW,291,13.8,13.8,66,0.00,BKN,,0.00,WeatherDisplay:10.37,2013-12-18 21:01:00,
2013-12-18 16:06:00,30.8,21.1,30.52,West,274,8.1,8.1,67,0.00,BKN,,0.00,WeatherDisplay:10.37,2013-12-18 21:06:00,
2013-12-18 16:11:00,30.8,21.1,30.52,WNW,283,11.5,11.5,67,0.00,BKN,,0.00,WeatherDisplay:10.37,2013-12-18 21:11:00,
2013-12-18 16:16:00,30.8,21.1,30.52,West,277,11.5,11.5,67,0.00,BKN,,0.00,WeatherDisplay:10.37,2013-12-18 21:16:00,
2013-12-18 16:21:00,30.7,21.0,30.52,West,269,7.0,7.0,67,0.00,BKN,,0.00,WeatherDisplay:10.37,2013-12-18 21:21:00,
2013-12-18 16:26:00,30.6,20.9,30.52,WNW,290,6.9,6.9,67,0.00,BKN,,0.00,WeatherDisplay:10.37,2013-12-18 21:26:00,
2013-12-18 16:35:00,30.5,20.0,30.02,West,278,4.0,10.0,66,0.00,,,0.00,weatherlink.com 1.10,2013-12-18 21:35:00,
2013-12-18 16:40:00,30.4,20.4,30.53,WNW,286,13.8,13.8,66,0.00,BKN,,0.00,WeatherDisplay:10.37,2013-12-18 21:40:00,
2013-12-18 16:45:00,30.4,20.4,30.53,West,275,8.1,8.1,66,0.00,BKN,,0.00,WeatherDisplay:10.37,2013-12-18 21:45:00,
2013-12-18 16:50:00,30.3,20.3,30.53,WNW,289,11.5,11.5,66,0.00,BKN,,0.00,WeatherDisplay:10.37,2013-12-18 21:50:00,
2013-12-18 16:55:00,30.1,20.5,30.53,West,275,10.4,10.4,67,0.00,BKN,,0.00,WeatherDisplay:10.37,2013-12-18 21:55:00,
2013-12-18 17:00:00,30.0,20.4,30.53,West,274,10.4,10.4,67,0.00,BKN,,0.00,WeatherDisplay:10.37,2013-12-18 22:00:00,
2013-12-18 17:05:00,29.8,20.2,30.52,WNW,298,8.1,8.1,67,0.00,BKN,,0.00,WeatherDisplay:10.37,2013-12-18 22:05:00,
2013-12-18 17:10:00,29.8,20.5,30.53,NW,307,9.2,9.2,68,0.00,BKN,,0.00,WeatherDisplay:10.37,2013-12-18 22:10:00,
2013-12-18 17:15:00,29.8,20.5,30.53,WNW,287,11.5,11.5,68,0.00,BKN,,0.00,WeatherDisplay:10.37,2013-12-18 22:15:00,
2013-12-18 17:20:00,29.8,20.5,30.53,WNW,282,12.7,12.7,68,0.00,BKN,,0.00,WeatherDisplay:10.37,2013-12-18 22:20:00,
2013-12-18 17:25:00,29.9,20.6,30.53,WNW,286,9.2,9.2,68,0.00,BKN,,0.00,WeatherDisplay:10.37,2013-12-18 22:25:00,
2013-12-18 17:30:00,29.9,20.6,30.54,WNW,295,10.4,10.4,68,0.00,BKN,,0.00,WeatherDisplay:10.37,2013-12-18 22:30:00,
2013-12-18 17:35:00,30.0,20.7,30.54,West,269,9.0,9.0,68,0.00,BKN,,0.00,WeatherDisplay:10.37,2013-12-18 22:35:00,
2013-12-18 17:40:00,30.2,20.2,30.54,West,280,13.8,13.8,66,0.00,BKN,,0.00,WeatherDisplay:10.37,2013-12-18 22:40:00,
2013-12-18 17:45:00,30.1,20.1,30.54,West,278,11.5,11.5,66,0.00,BKN,,0.00,WeatherDisplay:10.37,2013-12-18 22:45:00,
2013-12-18 17:50:00,30.1,19.7,30.54,WNW,298,15.0,15.0,65,0.00,BKN,,0.00,WeatherDisplay:10.37,2013-12-18 22:50:00,
2013-12-18 17:55:00,30.1,20.1,30.55,West,272,11.5,11.5,66,0.00,BKN,,0.00,WeatherDisplay:10.37,2013-12-18 22:55:00,
2013-12-18 18:00:00,30.0,20.0,30.55,WNW,302,11.5,11.5,66,0.00,BKN,,0.00,WeatherDisplay:10.37,2013-12-18 23:00:00,
2013-12-18 18:05:00,30.1,19.7,30.55,WNW,288,15.0,15.0,65,0.00,BKN,,0.00,WeatherDisplay:10.37,2013-12-18 23:05:00,
2013-12-18 18:10:00,30.0,20.0,30.55,West,268,12.7,12.7,66,0.00,BKN,,0.00,WeatherDisplay:10.37,2013-12-18 23:10:00,
2013-12-18 18:15:00,29.8,19.8,30.55,WNW,290,11.5,11.5,66,0.00,BKN,,0.00,WeatherDisplay:10.37,2013-12-18 23:15:00,
2013-12-18 18:20:00,29.6,20.0,30.56,WNW,298,8.0,8.0,67,0.00,BKN,,0.00,WeatherDisplay:10.37,2013-12-18 23:20:00,
2013-12-18 18:25:00,29.6,20.0,30.56,West,272,13.8,13.8,67,0.00,BKN,,0.00,WeatherDisplay:10.37,2013-12-18 23:25:00,
2013-12-18 18:30:00,29.6,20.0,30.56,West,278,8.1,8.1,67,0.00,BKN,,0.00,WeatherDisplay:10.37,2013-12-18 23:30:00,
2013-12-18 18:35:00,29.6,20.3,30.56,WNW,295,9.0,9.0,68,0.00,BKN,,0.00,WeatherDisplay:10.37,2013-12-18 23:35:00,
2013-12-18 18:40:00,29.4,20.5,30.56,West,277,9.0,9.0,69,0.00,BKN,,0.00,WeatherDisplay:10.37,2013-12-18 23:40:00,
2013-12-18 18:45:00,29.3,20.7,30.56,West,278,5.8,5.8,70,0.00,BKN,,0.00,WeatherDisplay:10.37,2013-12-18 23:45:00,
2013-12-18 18:50:00,29.2,20.6,30.56,West,281,5.8,5.8,70,0.00,BKN,,0.00,WeatherDisplay:10.37,2013-12-18 23:50:00,
2013-12-18 18:55:00,29.2,20.6,30.56,WSW,249,8.1,8.1,70,0.00,BKN,,0.00,WeatherDisplay:10.37,2013-12-18 23:55:00,
2013-12-18 19:00:00,29.2,21.0,30.56,WNW,282,5.8,5.8,71,0.00,BKN,,0.00,WeatherDisplay:10.37,2013-12-19 00:00:00,
2013-12-18 19:05:00,29.1,20.9,30.56,WSW,257,5.8,5.8,71,0.00,OVC,,0.00,WeatherDisplay:10.37,2013-12-19 00:05:00,
2013-12-18 19:10:00,29.1,20.9,30.56,WNW,285,6.9,6.9,71,0.00,OVC,,0.00,WeatherDisplay:10.37,2013-12-19 00:10:00,
2013-12-18 19:15:00,29.1,20.9,30.56,WNW,288,8.1,8.1,71,0.00,OVC,,0.00,WeatherDisplay:10.37,2013-12-19 00:15:00,
2013-12-18 19:20:00,29.1,20.9,30.57,West,265,5.0,5.0,71,0.00,OVC,,0.00,WeatherDisplay:10.37,2013-12-19 00:20:00,
2013-12-18 19:25:00,29.1,21.2,30.57,WNW,282,5.0,5.0,72,0.00,OVC,,0.00,WeatherDisplay:10.37,2013-12-19 00:25:00,
2013-12-18 19:30:00,29.1,20.9,30.57,WNW,285,5.8,5.8,71,0.00,OVC,,0.00,WeatherDisplay:10.37,2013-12-19 00:30:00,
2013-12-18 19:35:00,29.1,20.9,30.57,NW,314,5.8,5.8,71,0.00,OVC,,0.00,WeatherDisplay:10.37,2013-12-19 00:35:00,
2013-12-18 19:40:00,29.1,20.9,30.57,WNW,302,6.9,6.9,71,0.00,OVC,,0.00,WeatherDisplay:10.37,2013-12-19 00:40:00,
2013-12-18 19:45:00,29.2,21.0,30.56,West,259,9.2,9.2,71,0.00,OVC,,0.00,WeatherDisplay:10.37,2013-12-19 00:45:00,
2013-12-18 19:50:00,29.1,20.9,30.56,WSW,257,11.5,11.5,71,0.00,OVC,,0.00,WeatherDisplay:10.37,2013-12-19 00:50:00,
2013-12-18 19:55:00,29.2,21.0,30.56,West,271,8.1,8.1,71,0.00,OVC,,0.00,WeatherDisplay:10.37,2013-12-19 00:55:00,
2013-12-18 20:00:00,29.1,21.2,30.56,West,271,5.8,5.8,72,0.00,OVC,,0.00,WeatherDisplay:10.37,2013-12-19 01:00:00,
2013-12-18 20:05:00,29.1,21.2,30.56,WSW,257,4.6,4.6,72,0.00,OVC,,0.00,WeatherDisplay:10.37,2013-12-19 01:05:00,
2013-12-18 20:10:00,29.1,21.2,30.56,WNW,286,6.0,6.0,72,0.00,OVC,,0.00,WeatherDisplay:10.37,2013-12-19 01:10:00,
2013-12-18 20:15:00,29.0,21.4,30.56,WNW,283,4.0,4.0,73,0.00,OVC,,0.00,WeatherDisplay:10.37,2013-12-19 01:15:00,
2013-12-18 20:20:00,29.0,21.4,30.56,West,281,3.5,3.5,73,0.00,OVC,,0.00,WeatherDisplay:10.37,2013-12-19 01:20:00,
2013-12-18 20:25:00,29.0,21.4,30.56,WSW,258,2.3,2.3,73,0.00,OVC,,0.00,WeatherDisplay:10.37,2013-12-19 01:25:00,
2013-12-18 20:30:00,28.9,21.3,30.56,West,261,2.3,2.3,73,0.00,OVC,,0.00,WeatherDisplay:10.37,2013-12-19 01:30:00,
2013-12-18 20:35:00,28.9,21.7,30.56,West,259,2.3,2.3,74,0.00,OVC,,0.00,WeatherDisplay:10.37,2013-12-19 01:35:00,
2013-12-18 20:40:00,28.8,21.6,30.56,West,259,3.5,3.5,74,0.00,OVC,,0.00,WeatherDisplay:10.37,2013-12-19 01:40:00,
2013-12-18 20:45:00,28.7,21.8,30.56,WSW,257,2.3,2.3,75,0.00,OVC,,0.00,WeatherDisplay:10.37,2013-12-19 01:45:00,
2013-12-18 20:50:00,28.6,21.7,30.56,WSW,255,1.2,1.3,75,0.00,OVC,,0.00,WeatherDisplay:10.37,2013-12-19 01:50:00,
2013-12-18 20:55:00,28.6,22.0,30.56,WSW,255,1.2,1.2,76,0.00,OVC,,0.00,WeatherDisplay:10.37,2013-12-19 01:55:00,
2013-12-18 21:00:00,28.5,22.2,30.56,WSW,253,2.3,2.3,77,0.00,OVC,,0.00,WeatherDisplay:10.37,2013-12-19 02:00:00,
2013-12-18 21:05:00,28.5,22.2,30.56,WSW,251,2.3,2.3,77,0.00,OVC,,0.00,WeatherDisplay:10.37,2013-12-19 02:05:00,
2013-12-18 21:10:00,28.4,22.1,30.55,WSW,250,1.2,1.2,77,0.00,OVC,,0.00,WeatherDisplay:10.37,2013-12-19 02:10:00,
2013-12-18 21:15:00,28.4,22.4,30.56,WSW,251,1.2,1.2,78,0.00,OVC,,0.00,WeatherDisplay:10.37,2013-12-19 02:15:00,
2013-12-18 21:20:00,28.4,22.4,30.55,West,263,0.0,0.0,78,0.00,OVC,,0.00,WeatherDisplay:10.37,2013-12-19 02:20:00,
2013-12-18 21:25:00,28.3,22.6,30.55,West,260,1.2,0.0,79,0.00,OVC,,0.00,WeatherDisplay:10.37,2013-12-19 02:25:00,
2013-12-18 21:30:00,28.3,22.6,30.55,West,259,0.0,0.0,79,0.00,OVC,,0.00,WeatherDisplay:10.37,2013-12-19 02:30:00,
2013-12-18 21:35:00,28.2,22.5,30.55,West,260,0.0,0.0,79,0.00,OVC,,0.00,WeatherDisplay:10.37,2013-12-19 02:35:00,
2013-12-18 21:40:00,28.1,22.7,30.56,West,259,1.0,1.0,80,0.00,OVC,,0.00,WeatherDisplay:10.37,2013-12-19 02:40:00,
2013-12-18 21:45:00,28.1,22.7,30.55,SW,228,0.0,0.1,80,0.00,OVC,,0.00,WeatherDisplay:10.37,2013-12-19 02:45:00,
2013-12-18 21:50:00,28.1,23.0,30.55,SW,229,1.2,0.0,81,0.00,OVC,,0.00,WeatherDisplay:10.37,2013-12-19 02:50:00,
2013-12-18 21:55:00,28.1,23.0,30.56,WSW,248,1.2,0.0,81,0.00,OVC,,0.00,WeatherDisplay:10.37,2013-12-19 02:55:00,
2013-12-18 22:00:00,28.1,23.3,30.55,WSW,240,2.3,2.3,82,0.00,OVC,,0.00,WeatherDisplay:10.37,2013-12-19 03:00:00,
2013-12-18 22:05:00,28.2,23.4,30.55,WSW,243,3.5,3.5,82,0.00,OVC,,0.00,WeatherDisplay:10.37,2013-12-19 03:05:00,
2013-12-18 22:10:00,28.4,23.6,30.55,West,276,5.8,5.8,82,0.00,OVC,,0.00,WeatherDisplay:10.37,2013-12-19 03:10:00,
2013-12-18 22:15:00,28.5,23.4,30.55,SW,222,4.0,4.0,81,0.00,OVC,,0.00,WeatherDisplay:10.37,2013-12-19 03:15:00,
2013-12-18 22:20:00,28.7,23.3,30.55,WSW,237,5.8,5.8,80,0.00,OVC,,0.00,WeatherDisplay:10.37,2013-12-19 03:20:00,
2013-12-18 22:25:00,28.8,23.4,30.55,WSW,258,4.0,4.0,80,0.00,OVC,,0.00,WeatherDisplay:10.37,2013-12-19 03:25:00,
2013-12-18 22:30:00,29.0,23.0,30.55,SW,222,9.0,9.0,78,0.00,OVC,,0.00,WeatherDisplay:10.37,2013-12-19 03:30:00,
2013-12-18 22:36:00,29.1,22.8,30.55,SW,234,7.0,7.0,77,0.00,OVC,,0.00,WeatherDisplay:10.37,2013-12-19 03:36:00,
2013-12-18 22:41:00,29.2,22.6,30.55,West,279,6.9,6.9,76,0.00,OVC,,0.00,WeatherDisplay:10.37,2013-12-19 03:41:00,
2013-12-18 22:46:00,29.2,22.6,30.55,WSW,257,6.9,6.9,76,0.00,OVC,,0.00,WeatherDisplay:10.37,2013-12-19 03:46:00,
2013-12-18 22:51:00,29.3,22.0,30.55,West,261,10.4,10.4,74,0.00,OVC,,0.00,WeatherDisplay:10.37,2013-12-19 03:51:00,
2013-12-18 22:56:00,29.3,22.0,30.55,WSW,248,12.0,12.0,74,0.00,OVC,,0.00,WeatherDisplay:10.37,2013-12-19 03:56:00,
2013-12-18 23:01:00,29.3,21.7,30.55,WSW,247,9.2,9.2,73,0.00,OVC,,0.00,WeatherDisplay:10.37,2013-12-19 04:01:00,
2013-12-18 23:06:00,29.3,21.4,30.55,WSW,258,8.1,8.1,72,0.00,OVC,,0.00,WeatherDisplay:10.37,2013-12-19 04:06:00,
2013-12-18 23:11:00,29.2,21.3,30.54,West,265,5.8,5.8,72,0.00,OVC,,0.00,WeatherDisplay:10.37,2013-12-19 04:11:00,
2013-12-18 23:16:00,29.2,21.3,30.55,WSW,248,4.6,4.6,72,0.00,OVC,,0.00,WeatherDisplay:10.37,2013-12-19 04:16:00,
2013-12-18 23:21:00,29.1,21.2,30.55,WSW,255,5.8,5.8,72,0.00,OVC,,0.00,WeatherDisplay:10.37,2013-12-19 04:21:00,
2013-12-18 23:26:00,29.1,20.9,30.55,WSW,250,8.1,8.1,71,0.00,OVC,,0.00,WeatherDisplay:10.37,2013-12-19 04:26:00,
2013-12-18 23:31:00,29.1,21.2,30.55,WSW,255,6.0,6.0,72,0.00,OVC,,0.00,WeatherDisplay:10.37,2013-12-19 04:31:00,
2013-12-18 23:36:00,29.0,20.8,30.55,West,270,3.5,3.5,71,0.00,OVC,,0.00,WeatherDisplay:10.37,2013-12-19 04:36:00,
2013-12-18 23:41:00,29.0,20.8,30.55,West,260,6.9,6.9,71,0.00,OVC,,0.00,WeatherDisplay:10.37,2013-12-19 04:41:00,
2013-12-18 23:46:00,28.9,20.7,30.55,West,260,4.6,4.6,71,0.00,OVC,,0.00,WeatherDisplay:10.37,2013-12-19 04:46:00,
2013-12-18 23:51:00,28.8,20.6,30.55,SW,236,3.5,3.5,71,0.00,OVC,,0.00,WeatherDisplay:10.37,2013-12-19 04:51:00,
2013-12-18 23:56:00,28.8,20.9,30.55,SW,236,3.5,3.5,72,0.00,OVC,,0.00,WeatherDisplay:10.37,2013-12-19 04:56:00,